Aérodrome :
LOGIN :

S'inscrire | Disclaimer

   EN    FR    IT 

 










Légende :    VFR   VFR Marginal   IFR   IFR Intensif   IFR Très Intensif
Visi : 
Plafond : 
>= 8 km
>= 3000ft
5 à 8 km
1000 à 3000 ft
1500m à 5 km
500 à 1000 ft
800 à 1500m
200 à 500 ft
< 800m
< 200 ft
Symboles :   Orages  Brouillard  Fortes neiges  Fortes précipitations  Vent > 20 kt
SIGMETs :   Divers  Orages  Givrage  Turbulence  Onde Orograph.  Cendres Volcan.






- Altitude de l'aérodrome : 55 ft


LIRU - Urbe

DERNIER METAR :
  • 141350Z 26009KT CAVOK 27/12 Q1022

METARs EXPIRÉS :
  • 141250Z 26007KT 210V300 CAVOK 28/16 Q1023
  • 141150Z VRB02KT CAVOK 29/14 Q1023
  • 141050Z VRB02KT CAVOK 28/14 Q1024
  • 140950Z VRB01KT CAVOK 26/14 Q1024

TAF TAF LIRU
Valide du 14 à 12h jusqu'au 14 à 21h UTC


141100Z 1412/1421 VRB05KT CAVOK
BECMG 1412/1414 24010KT
BECMG 1415/1417 VRB05KT



MET'MAP, la Météo Aéronautique d'un coup d'oeil ! - Copyright ORBIFLY Décembre 2007 - Disclaimer

ORBIFLY MET'MAP TEAM :

Programmation & Développement : Alexandra Zaïnal
Sur une idée originale de : Baudouin d'Aumeries
Soutien technique & logistique : Manuel Goepfert
Assistance : Marc-Olivier Méhu




SOURCES & CREDITS :

   NOAA